createdAt,value
2023-05-14T00:02:54.642Z,95141
2023-05-14T00:06:19.790Z,95136
2023-05-14T00:09:45.005Z,95136
2023-05-14T00:13:10.180Z,95135
2023-05-14T00:16:35.458Z,95124
2023-05-14T00:20:00.603Z,95123
2023-05-14T00:23:25.753Z,95124
2023-05-14T00:26:50.941Z,95116
2023-05-14T00:30:16.100Z,95119
2023-05-14T00:33:41.273Z,95117
2023-05-14T00:37:06.477Z,95118
2023-05-14T00:40:31.629Z,95115
2023-05-14T00:43:56.821Z,95113
2023-05-14T00:47:22.085Z,95110
2023-05-14T00:50:47.180Z,95113
2023-05-14T00:54:12.377Z,95118
2023-05-14T00:57:37.547Z,95116
2023-05-14T01:01:02.733Z,95114
2023-05-14T01:04:27.866Z,95114
2023-05-14T01:07:53.062Z,95113
2023-05-14T01:11:18.291Z,95118
2023-05-14T01:14:43.433Z,95119
2023-05-14T01:18:08.641Z,95122
2023-05-14T01:21:33.790Z,95124
2023-05-14T01:24:58.995Z,95121
2023-05-14T01:29:35.854Z,95127
2023-05-14T01:33:01.101Z,95125
2023-05-14T01:36:26.281Z,95124
2023-05-14T01:39:51.544Z,95114
2023-05-14T01:43:16.791Z,95116
2023-05-14T01:46:42.110Z,95113
2023-05-14T01:50:07.223Z,95111
2023-05-14T01:53:32.452Z,95112
2023-05-14T01:56:57.731Z,95115
2023-05-14T02:00:23.055Z,95110
2023-05-14T02:03:48.197Z,95114
2023-05-14T02:07:13.381Z,95114
2023-05-14T02:10:38.601Z,95112
2023-05-14T02:14:03.816Z,95111
2023-05-14T02:17:29.047Z,95106
2023-05-14T02:20:54.262Z,95109
2023-05-14T02:24:19.433Z,95105
2023-05-14T02:27:44.649Z,95100
2023-05-14T02:31:09.892Z,95099
2023-05-14T02:34:35.068Z,95099
2023-05-14T02:38:00.333Z,95094
2023-05-14T02:41:25.552Z,95099
2023-05-14T02:44:50.751Z,95094
2023-05-14T02:48:15.950Z,95093
2023-05-14T02:51:41.168Z,95096
2023-05-14T02:55:06.444Z,95089
2023-05-14T02:58:31.642Z,95089
2023-05-14T03:01:56.874Z,95091
2023-05-14T03:05:22.128Z,95093
2023-05-14T03:08:47.374Z,95093
2023-05-14T03:12:12.609Z,95090
2023-05-14T03:15:37.814Z,95088
2023-05-14T03:19:03.083Z,95087
2023-05-14T03:22:28.279Z,95087
2023-05-14T03:25:53.492Z,95088
2023-05-14T03:29:18.720Z,95081
2023-05-14T03:32:43.980Z,95080
2023-05-14T03:36:09.140Z,95079
2023-05-14T03:39:34.339Z,95079
2023-05-14T03:42:59.554Z,95079
2023-05-14T03:46:24.804Z,95072
2023-05-14T03:49:49.998Z,95078
2023-05-14T03:53:15.214Z,95079
2023-05-14T03:56:40.461Z,95083
2023-05-14T04:00:05.694Z,95082
2023-05-14T04:03:31.189Z,95079
2023-05-14T04:06:56.122Z,95082
2023-05-14T04:10:21.493Z,95083
2023-05-14T04:13:46.609Z,95078
2023-05-14T04:17:11.851Z,95070
2023-05-14T04:20:37.121Z,95070
2023-05-14T04:24:02.298Z,95068
2023-05-14T04:27:27.513Z,95073
2023-05-14T04:30:52.984Z,95074
2023-05-14T04:34:18.220Z,95073
2023-05-14T04:37:43.512Z,95072
2023-05-14T04:41:08.699Z,95073
2023-05-14T04:44:33.935Z,95071
2023-05-14T04:47:59.169Z,95072
2023-05-14T04:51:24.370Z,95074
2023-05-14T04:54:49.642Z,95073
2023-05-14T04:58:14.833Z,95070
2023-05-14T05:01:40.232Z,95073
2023-05-14T05:05:05.293Z,95072
2023-05-14T05:08:30.530Z,95069
2023-05-14T05:11:55.777Z,95079
2023-05-14T05:15:20.960Z,95076
2023-05-14T05:18:46.195Z,95076
2023-05-14T05:22:11.411Z,95072
2023-05-14T05:25:36.633Z,95077
2023-05-14T05:29:01.921Z,95074
2023-05-14T05:32:27.172Z,95069
2023-05-14T05:35:52.426Z,95073
2023-05-14T05:39:17.638Z,95073
2023-05-14T05:42:42.938Z,95073
2023-05-14T05:46:08.310Z,95062
2023-05-14T05:49:33.467Z,95060
2023-05-14T05:52:58.711Z,95065
2023-05-14T05:56:23.988Z,95062
2023-05-14T05:59:49.241Z,95066
2023-05-14T06:03:14.659Z,95062
2023-05-14T06:06:39.743Z,95066
2023-05-14T06:10:05.049Z,95060
2023-05-14T06:13:30.283Z,95074
2023-05-14T06:16:55.537Z,95065
2023-05-14T06:20:20.829Z,95067
2023-05-14T06:23:46.002Z,95074
2023-05-14T06:27:11.229Z,95075
2023-05-14T06:30:36.482Z,95070
2023-05-14T06:34:01.728Z,95070
2023-05-14T06:37:27.006Z,95068
2023-05-14T06:40:52.239Z,95067
2023-05-14T06:44:17.487Z,95073
2023-05-14T06:47:42.752Z,95073
2023-05-14T06:51:07.989Z,95070
2023-05-14T06:54:33.264Z,95071
2023-05-14T06:57:58.463Z,95065
2023-05-14T07:01:23.704Z,95060
2023-05-14T07:04:49.182Z,95061
2023-05-14T07:08:14.424Z,95063
2023-05-14T07:11:39.648Z,95062
2023-05-14T07:15:04.901Z,95061
2023-05-14T07:18:30.155Z,95060
2023-05-14T07:21:55.359Z,95059
2023-05-14T07:25:20.599Z,95054
2023-05-14T07:28:45.860Z,95054
2023-05-14T07:32:12.250Z,95058
2023-05-14T07:35:36.319Z,95055
2023-05-14T07:39:01.555Z,95053
2023-05-14T07:42:35.705Z,95053
2023-05-14T07:45:52.079Z,95048
2023-05-14T07:49:17.297Z,95047
2023-05-14T07:52:42.539Z,95042
2023-05-14T07:56:07.737Z,95044
2023-05-14T07:59:32.950Z,95042
2023-05-14T08:02:58.375Z,95041
2023-05-14T08:06:23.404Z,95041
2023-05-14T08:09:48.663Z,95035
2023-05-14T08:13:13.908Z,95033
2023-05-14T08:16:39.219Z,95038
2023-05-14T08:20:04.408Z,95031
2023-05-14T08:23:29.633Z,95029
2023-05-14T08:26:54.889Z,95029
2023-05-14T08:30:20.115Z,95028
2023-05-14T08:33:45.337Z,95028
2023-05-14T08:37:10.635Z,95022
2023-05-14T08:40:35.825Z,95020
2023-05-14T08:44:01.046Z,95021
2023-05-14T08:47:26.315Z,95025
2023-05-14T08:50:51.554Z,95020
2023-05-14T08:54:16.841Z,95016
2023-05-14T08:57:42.053Z,95019
2023-05-14T09:01:07.261Z,95015
2023-05-14T09:04:32.469Z,95007
2023-05-14T09:07:57.722Z,95008
2023-05-14T09:11:22.981Z,95003
2023-05-14T09:14:48.211Z,95001
2023-05-14T09:18:13.508Z,94998
2023-05-14T09:21:38.698Z,94993
2023-05-14T09:25:03.894Z,94992
2023-05-14T09:28:29.176Z,94988
2023-05-14T09:31:54.358Z,94986
2023-05-14T09:35:19.581Z,94980
2023-05-14T09:38:44.780Z,94975
2023-05-14T09:42:10.045Z,94984
2023-05-14T09:45:35.373Z,94981
2023-05-14T09:49:00.605Z,94974
2023-05-14T09:52:25.829Z,94981
2023-05-14T09:55:51.046Z,94969
2023-05-14T09:59:16.273Z,94964
2023-05-14T10:02:41.646Z,94961
2023-05-14T10:06:06.726Z,94964
2023-05-14T10:09:31.955Z,94956
2023-05-14T10:12:57.192Z,94955
2023-05-14T10:16:22.428Z,94957
2023-05-14T10:19:47.685Z,94954
2023-05-14T10:23:12.902Z,94949
2023-05-14T10:26:38.154Z,94950
2023-05-14T10:30:04.310Z,94943
2023-05-14T10:33:29.528Z,94940
2023-05-14T10:36:54.732Z,94936
2023-05-14T10:40:19.956Z,94931
2023-05-14T10:43:45.163Z,94928
2023-05-14T10:47:10.413Z,94926
2023-05-14T10:50:35.655Z,94923
2023-05-14T10:54:00.906Z,94923
2023-05-14T10:57:26.125Z,94912
2023-05-14T11:00:51.341Z,94903
2023-05-14T11:04:16.563Z,94904
2023-05-14T11:07:41.821Z,94898
2023-05-14T11:11:07.091Z,94892
2023-05-14T11:14:32.302Z,94895
2023-05-14T11:17:57.550Z,94895
2023-05-14T11:21:22.876Z,94894
2023-05-14T11:24:47.952Z,94883
2023-05-14T11:28:13.180Z,94884
2023-05-14T11:31:38.417Z,94883
2023-05-14T11:35:03.623Z,94880
2023-05-14T11:38:28.825Z,94878
2023-05-14T11:41:54.046Z,94873
2023-05-14T11:45:19.302Z,94866
2023-05-14T11:48:44.528Z,94859
2023-05-14T11:52:09.739Z,94861
2023-05-14T11:55:35.004Z,94862
2023-05-14T11:59:00.225Z,94865
2023-05-14T12:02:25.530Z,94863
2023-05-14T12:05:50.646Z,94863
2023-05-14T12:09:15.853Z,94861
2023-05-14T12:12:41.119Z,94855
2023-05-14T12:16:06.345Z,94854
2023-05-14T12:19:31.587Z,94857
2023-05-14T12:22:56.797Z,94849
2023-05-14T12:26:22.040Z,94848
2023-05-14T12:29:47.274Z,94848
2023-05-14T12:33:12.492Z,94848
2023-05-14T12:36:37.721Z,94845
2023-05-14T12:40:02.914Z,94837
2023-05-14T12:43:28.144Z,94837
2023-05-14T12:46:53.419Z,94834
2023-05-14T12:50:18.642Z,94833
2023-05-14T12:53:43.887Z,94832
2023-05-14T12:57:09.105Z,94824
2023-05-14T13:00:34.333Z,94820
2023-05-14T13:03:59.614Z,94820
2023-05-14T13:07:24.760Z,94819
2023-05-14T13:10:49.998Z,94815
2023-05-14T13:14:15.199Z,94807
2023-05-14T13:17:40.450Z,94801
2023-05-14T13:21:05.619Z,94798
2023-05-14T13:24:30.830Z,94796
2023-05-14T13:27:56.077Z,94799
2023-05-14T13:31:21.296Z,94800
2023-05-14T13:34:46.497Z,94790
2023-05-14T13:38:11.730Z,94785
2023-05-14T13:41:36.963Z,94784
2023-05-14T13:45:02.210Z,94778
2023-05-14T13:48:27.427Z,94777
2023-05-14T13:51:52.700Z,94779
2023-05-14T13:55:17.922Z,94778
2023-05-14T13:58:43.143Z,94777
2023-05-14T14:02:08.442Z,94781
2023-05-14T14:05:33.704Z,94784
2023-05-14T14:08:58.874Z,94789
2023-05-14T14:12:24.178Z,94781
2023-05-14T14:15:49.443Z,94779
2023-05-14T14:19:16.198Z,94780
2023-05-14T14:22:40.596Z,94773
2023-05-14T14:26:05.892Z,94769
2023-05-14T14:29:31.207Z,94766
2023-05-14T14:32:56.411Z,94764
2023-05-14T14:36:21.628Z,94759
2023-05-14T14:39:46.830Z,94757
2023-05-14T14:43:12.046Z,94748
2023-05-14T14:46:37.305Z,94748
2023-05-14T14:50:02.498Z,94745
2023-05-14T14:53:27.769Z,94735
2023-05-14T14:56:52.977Z,94735
2023-05-14T15:00:18.205Z,94734
2023-05-14T15:03:43.434Z,94732
2023-05-14T15:07:08.628Z,94735
2023-05-14T15:10:33.860Z,94733
2023-05-14T15:48:01.873Z,94736
2023-05-14T15:51:27.001Z,94747
2023-05-14T15:54:52.275Z,94747
2023-05-14T15:58:19.504Z,94748
2023-05-14T16:01:44.832Z,94740
2023-05-14T16:05:10.064Z,94739
2023-05-14T16:08:35.265Z,94742
2023-05-14T16:12:00.553Z,94733
2023-05-14T16:15:25.797Z,94736
2023-05-14T16:18:51.038Z,94735
2023-05-14T16:22:16.287Z,94731
2023-05-14T16:25:41.520Z,94735
2023-05-14T16:29:06.715Z,94737
2023-05-14T16:32:31.959Z,94739
2023-05-14T16:35:57.192Z,94731
2023-05-14T16:39:22.459Z,94731
2023-05-14T16:42:49.235Z,94727
2023-05-14T16:46:12.931Z,94721
2023-05-14T16:49:38.154Z,94729
2023-05-14T16:53:03.372Z,94723
2023-05-14T16:56:28.638Z,94719
2023-05-14T16:59:53.982Z,94726
2023-05-14T17:03:19.117Z,94722
2023-05-14T17:06:44.342Z,94725
2023-05-14T17:10:09.585Z,94726
2023-05-14T17:13:34.855Z,94721
2023-05-14T17:17:00.060Z,94724
2023-05-14T17:20:25.282Z,94724
2023-05-14T17:23:50.511Z,94723
2023-05-14T17:27:16.736Z,94727
2023-05-14T17:30:40.995Z,94725
2023-05-14T17:34:06.201Z,94719
2023-05-14T17:37:31.443Z,94724
2023-05-14T17:40:56.698Z,94725
2023-05-14T17:44:21.926Z,94720
2023-05-14T17:47:47.191Z,94715
2023-05-14T17:51:12.407Z,94708
2023-05-14T17:54:37.659Z,94714
2023-05-14T17:58:02.879Z,94711
2023-05-14T18:01:28.214Z,94704
2023-05-14T18:04:53.394Z,94705
2023-05-14T18:08:18.610Z,94706
2023-05-14T18:11:43.828Z,94708
2023-05-14T18:15:09.068Z,94706
2023-05-14T18:18:34.338Z,94712
2023-05-14T18:21:59.562Z,94720
2023-05-14T18:25:24.903Z,94716
2023-05-14T18:28:50.027Z,94726
2023-05-14T18:32:15.265Z,94724
2023-05-14T18:35:40.502Z,94721
2023-05-14T18:39:05.752Z,94723
2023-05-14T18:42:30.961Z,94722
2023-05-14T18:45:56.278Z,94713
2023-05-14T18:49:21.451Z,94716
2023-05-14T18:52:46.963Z,94718
2023-05-14T18:56:12.231Z,94716
2023-05-14T18:59:37.426Z,94719
2023-05-14T19:03:02.693Z,94717
2023-05-14T19:06:27.887Z,94721
2023-05-14T19:09:53.151Z,94724
2023-05-14T19:13:18.413Z,94724
2023-05-14T19:16:43.612Z,94725
2023-05-14T19:20:08.861Z,94726
2023-05-14T19:23:34.108Z,94728
2023-05-14T19:26:59.763Z,94726
2023-05-14T19:30:25.017Z,94735
2023-05-14T19:33:50.250Z,94737
2023-05-14T19:37:15.484Z,94730
2023-05-14T19:40:40.725Z,94722
2023-05-14T19:44:06.004Z,94723
2023-05-14T19:47:31.346Z,94717
2023-05-14T19:50:56.532Z,94715
2023-05-14T19:54:21.720Z,94712
2023-05-14T19:57:46.977Z,94710
2023-05-14T20:01:12.273Z,94709
2023-05-14T20:04:37.439Z,94710
2023-05-14T20:08:02.620Z,94703
2023-05-14T20:11:27.861Z,94701
2023-05-14T20:14:53.057Z,94694
2023-05-14T20:18:18.263Z,94693
2023-05-14T20:21:43.541Z,94691
2023-05-14T20:25:08.725Z,94697
2023-05-14T20:28:33.980Z,94693
2023-05-14T20:31:59.204Z,94695
2023-05-14T20:35:24.551Z,94695
2023-05-14T20:38:49.959Z,94692
2023-05-14T20:42:15.063Z,94694
2023-05-14T20:45:40.302Z,94684
2023-05-14T20:49:05.620Z,94686
2023-05-14T20:52:30.871Z,94680
2023-05-14T20:55:56.098Z,94678
2023-05-14T20:59:21.345Z,94675
2023-05-14T21:02:46.657Z,94671
2023-05-14T21:06:11.776Z,94673
2023-05-14T21:09:36.983Z,94672
2023-05-14T21:13:02.225Z,94666
2023-05-14T21:16:27.465Z,94662
2023-05-14T21:19:52.622Z,94659
2023-05-14T21:23:17.840Z,94659
2023-05-14T21:26:43.067Z,94663
2023-05-14T21:30:08.318Z,94661
2023-05-14T21:33:33.518Z,94661
2023-05-14T21:36:58.747Z,94664
2023-05-14T21:40:23.986Z,94663
2023-05-14T21:43:49.377Z,94667
2023-05-14T21:47:14.610Z,94666
2023-05-14T21:50:39.818Z,94666
2023-05-14T21:54:05.062Z,94664
2023-05-14T21:57:33.283Z,94663
2023-05-14T22:00:55.544Z,94660
2023-05-14T22:04:20.918Z,94659
2023-05-14T22:07:45.986Z,94653
2023-05-14T22:11:11.242Z,94648
2023-05-14T22:14:36.474Z,94655
2023-05-14T22:18:01.713Z,94659
2023-05-14T22:21:26.900Z,94653
2023-05-14T22:24:52.119Z,94655
2023-05-14T22:28:17.349Z,94655
2023-05-14T22:31:42.640Z,94651
2023-05-14T22:35:07.819Z,94649
2023-05-14T22:38:33.039Z,94639
2023-05-14T22:41:58.233Z,94638
2023-05-14T22:45:23.627Z,94637
2023-05-14T22:48:48.650Z,94640
2023-05-14T22:52:13.855Z,94637
2023-05-14T22:55:39.099Z,94631
2023-05-14T22:59:04.351Z,94630
2023-05-14T23:02:29.586Z,94623
2023-05-14T23:05:54.771Z,94626
2023-05-14T23:09:20.003Z,94623
2023-05-14T23:12:45.247Z,94617
2023-05-14T23:16:10.499Z,94618
2023-05-14T23:19:35.809Z,94619
2023-05-14T23:23:00.975Z,94615
2023-05-14T23:26:26.175Z,94613
2023-05-14T23:29:51.437Z,94612
2023-05-14T23:33:16.638Z,94609
2023-05-14T23:36:41.878Z,94600
2023-05-14T23:40:07.100Z,94597
2023-05-14T23:43:32.320Z,94592
2023-05-14T23:46:57.558Z,94585
2023-05-14T23:50:22.775Z,94577
2023-05-14T23:53:47.998Z,94569
2023-05-14T23:57:14.457Z,94565
